Terminal Aerodrome Forecast
Issued by NWS

Home | Current Version | Previous Version | Text Only | Print | Product List | Glossary On
Versions: 1 2 3 4 5 6 7 8 9 10 11 12 13 14 15 16 17 18 19 20 21 22 23 24 25 26
000
FTUS43 KSGF 201100
TAFJLN
TAF
KJLN 201120Z 2012/2112 27004KT 5SM BR OVC008
     FM201900 18005KT P6SM OVC015
     FM202200 18005KT P6SM OVC025
     FM210900 17008KT 4SM BR OVC015=

USA.gov is the U.S. government's official web portal to all federal, state and local government web resources and services.